Decoded Metar for PADM (MARSHALL in AK, USA) (IATA:N/A) | Meteo·Mobile Aviation Weather
aviador You're here:

PADM Decoded Metar

MARSHALL in AK, USA
Report Time2019-01-17 23:02:00
UTC Time2019-01-18 00:02:19
Flight Rules vfr VFR
WindCalm
Visibility9999 m
Phenomena:N/A
Clouds:Broken 046 Hf
Overcast 050 Hf
Expected CloudBase > 800 ft AGL from Temp-Dew spread
Ceiling4,600 ft
Temp-8°C (ISA -23)
Dew Point-10°C (86% RH)
AAT-11.1°C
QNH1010 hPa
Density Alt-2,592 ft
Elevation102 ft
Report Wrong Elevation
Raw Report
PADM 172302Z AUTO 00000KT 10SM BKN046 OVC050 M08/M10 A2984 RMK AO2
SLP113 T10781100 FZRANO=

Extra information for PADM:More info

Metar Taf Metar & Taf Last 4 Metars F.Rules Stats Wind Profile Meteogram Temp Stats Airport Information Weather charts Add Link Nearby VenuesMetar ALERT Operation Metar Decoded Social comments

AIRNAV info for PADM